Time;durP1;ratioP1;P1;durP2;ratioP2;P2;SDS_P1;SDS_P2;PMS_P1;PMS_P2;Temp;Humidity;BMP_temperature;BMP_pressure;BME280_temperature;BME280_humidity;BME280_pressure;Samples;Min_cycle;Max_cycle;Signal;HPM_P1;HPM_P2
2022/12/20 00:02:11;;;;;;;;;;;;;;;11.42;43.94;101184.78;4943510;28;125706;-69
2022/12/20 00:04:37;;;;;;;;;;;;;;;11.41;44.07;101188.56;4962828;28;122327;-70
2022/12/20 00:07:03;;;;;;;;;;;;;;;11.40;44.25;101195.03;4960022;28;99575;-70
2022/12/20 00:09:29;;;;;;;;;;;;;;;11.38;44.15;101184.47;4940132;28;107940;-70
2022/12/20 00:11:55;;;;;;;;;;;;;;;11.39;44.16;101182.56;4959142;28;101916;-66
2022/12/20 00:14:21;;;;;;;;;;;;;;;11.38;44.04;101183.66;4974617;28;122364;-66
2022/12/20 00:16:47;;;;;;;;;;;;;;;11.38;43.97;101184.47;4956266;28;113856;-70
2022/12/20 00:19:12;;;;;;;;;;;;;;;11.37;44.06;101188.25;4940864;28;128571;-70
2022/12/20 00:21:38;;;;;;;;;;;;;;;11.38;44.08;101186.34;4962497;28;127416;-66
2022/12/20 00:24:05;;;;;;;;;;;;;;;11.37;44.09;101176.63;4940529;28;122041;-70
2022/12/20 00:26:32;;;;;;;;;;;;;;;11.34;44.38;101179.84;4960614;28;125856;-67
2022/12/20 00:28:58;;;;;;;;;;;;;;;11.34;44.18;101175.25;4944407;28;97889;-66
2022/12/20 00:31:24;;;;;;;;;;;;;;;11.34;44.29;101177.13;4958982;28;98327;-66
2022/12/20 00:33:51;;;;;;;;;;;;;;;11.33;44.04;101168.22;4956504;28;98152;-66
2022/12/20 00:36:18;;;;;;;;;;;;;;;11.32;43.93;101166.59;4970930;27;126907;-69
2022/12/20 00:38:44;;;;;;;;;;;;;;;11.31;43.99;101152.28;4944947;28;105420;-66
2022/12/20 00:41:18;;;;;;;;;;;;;;;11.31;43.89;101154.16;4953886;28;126732;-66
2022/12/20 00:43:43;;;;;;;;;;;;;;;11.31;44.08;101146.06;4957153;28;97829;-70
2022/12/20 00:46:10;;;;;;;;;;;;;;;11.31;44.07;101149.56;4937023;28;127146;-69
2022/12/20 00:48:36;;;;;;;;;;;;;;;11.31;44.28;101140.66;4964922;28;98361;-70
2022/12/20 00:51:10;;;;;;;;;;;;;;;11.31;44.14;101143.38;4972581;28;118052;-70
2022/12/20 00:53:36;;;;;;;;;;;;;;;11.31;44.28;101133.38;4945783;28;114023;-66
2022/12/20 00:56:02;;;;;;;;;;;;;;;11.32;44.13;101118.03;4959004;28;98588;-70
2022/12/20 00:58:28;;;;;;;;;;;;;;;11.30;44.16;101107.47;4941835;28;98362;-66
2022/12/20 01:00:54;;;;;;;;;;;;;;;11.29;43.86;101103.16;4938589;28;119217;-66
2022/12/20 01:03:20;;;;;;;;;;;;;;;11.30;44.13;101112.06;4941716;28;120915;-66
2022/12/20 01:05:50;;;;;;;;;;;;;;;11.27;44.10;101110.66;4977126;28;126984;-67
2022/12/20 01:08:16;;;;;;;;;;;;;;;11.27;44.11;101109.84;4973005;28;99189;-66
2022/12/20 01:10:42;;;;;;;;;;;;;;;11.27;43.99;101118.75;4970810;28;123836;-69
2022/12/20 01:13:08;;;;;;;;;;;;;;;11.25;44.21;101117.41;4919960;28;121613;-66
2022/12/20 01:15:34;;;;;;;;;;;;;;;11.25;44.04;101118.22;4941023;28;128288;-66
2022/12/20 01:18:00;;;;;;;;;;;;;;;11.26;43.95;101132.53;4960187;28;128462;-66
2022/12/20 01:20:26;;;;;;;;;;;;;;;11.26;43.94;101122.53;4972671;28;128355;-70
2022/12/20 01:22:52;;;;;;;;;;;;;;;11.25;43.77;101109.31;4945634;28;98055;-70
2022/12/20 01:25:17;;;;;;;;;;;;;;;11.26;44.16;101105.53;4976448;28;128422;-69
2022/12/20 01:27:43;;;;;;;;;;;;;;;11.25;44.32;101102.03;4959380;28;128133;-70
2022/12/20 01:30:10;;;;;;;;;;;;;;;11.26;44.16;101110.94;4971135;28;127722;-66
2022/12/20 01:32:36;;;;;;;;;;;;;;;11.27;43.99;101118.75;4973618;28;113304;-69
2022/12/20 01:35:02;;;;;;;;;;;;;;;11.30;44.26;101134.47;4937496;28;120415;-70
2022/12/20 01:37:28;;;;;;;;;;;;;;;11.30;44.22;101137.16;4944100;28;121554;-69
2022/12/20 01:39:54;;;;;;;;;;;;;;;11.34;44.22;101142.84;4940827;28;98147;-67
2022/12/20 01:42:20;;;;;;;;;;;;;;;11.37;44.23;101155.03;4944737;28;122851;-69
2022/12/20 01:44:53;;;;;;;;;;;;;;;11.40;44.14;101157.22;4960371;28;118353;-70
2022/12/20 01:47:19;;;;;;;;;;;;;;;11.41;44.06;101138.06;4970752;27;111046;-66
2022/12/20 01:49:46;;;;;;;;;;;;;;;11.42;44.10;101139.69;4956041;28;111681;-70
2022/12/20 01:52:35;;;;;;;;;;;;;;;11.44;44.08;101124.06;4953360;28;116875;-69
2022/12/20 01:55:04;;;;;;;;;;;;;;;11.45;44.04;101125.69;4953535;28;98587;-69
2022/12/20 01:57:46;;;;;;;;;;;;;;;11.47;44.08;101125.41;4959679;28;98139;-67
2022/12/20 02:00:12;;;;;;;;;;;;;;;11.47;44.10;101115.44;4942143;28;99804;-66
2022/12/20 02:02:39;;;;;;;;;;;;;;;11.49;44.01;101112.50;4938065;28;107639;-66
2022/12/20 02:05:05;;;;;;;;;;;;;;;11.50;44.06;101109.53;4941062;28;98449;-69
2022/12/20 02:07:31;;;;;;;;;;;;;;;11.51;43.95;101113.03;4942642;28;98447;-70
2022/12/20 02:09:57;;;;;;;;;;;;;;;11.52;43.90;101104.69;4960016;28;99279;-67
2022/12/20 02:12:24;;;;;;;;;;;;;;;11.52;44.15;101112.78;4941410;28;99801;-70
2022/12/20 02:14:59;;;;;;;;;;;;;;;11.53;43.94;101106.31;4938392;28;112273;-66
2022/12/20 02:17:34;;;;;;;;;;;;;;;11.55;44.11;101114.97;4974376;28;98346;-66
2022/12/20 02:20:19;;;;;;;;;;;;;;;11.57;43.96;101100.41;4957374;28;102046;-69
2022/12/20 02:23:14;;;;;;;;;;;;;;;11.57;44.06;101113.91;4972022;28;98208;-66
2022/12/20 02:26:16;;;;;;;;;;;;;;;11.57;44.13;101119.31;4942256;28;130252;-66
2022/12/20 02:28:55;;;;;;;;;;;;;;;11.59;44.13;101100.94;4974575;28;98404;-70
2022/12/20 02:31:25;;;;;;;;;;;;;;;11.60;44.04;101095.31;4961525;27;112655;-70
2022/12/20 02:33:51;;;;;;;;;;;;;;;11.61;44.03;101104.22;4938841;28;122967;-69
2022/12/20 02:36:17;;;;;;;;;;;;;;;11.59;44.00;101096.34;4952189;28;127539;-66
2022/12/20 02:38:43;;;;;;;;;;;;;;;11.61;44.16;101099.63;4941589;28;98041;-66
2022/12/20 02:41:38;;;;;;;;;;;;;;;11.61;44.17;101099.63;4972801;28;98279;-67
2022/12/20 02:46:51;;;;;;;;;;;;;;;11.60;43.61;101078.28;4958896;28;98185;-66
2022/12/20 02:49:18;;;;;;;;;;;;;;;11.61;44.12;101088.00;4941335;28;99938;-66
2022/12/20 02:51:46;;;;;;;;;;;;;;;11.60;44.18;101086.41;4953666;28;116757;-70
2022/12/20 02:54:12;;;;;;;;;;;;;;;11.60;44.00;101067.50;4957815;28;97770;-66
2022/12/20 02:56:46;;;;;;;;;;;;;;;11.60;44.01;101087.19;4946741;28;97993;-66
2022/12/20 02:59:20;;;;;;;;;;;;;;;11.59;44.02;101093.66;4959045;28;117138;-66
2022/12/20 03:01:53;;;;;;;;;;;;;;;11.58;44.38;101089.34;4941472;28;99494;-69
2022/12/20 03:04:24;;;;;;;;;;;;;;;11.59;44.08;101092.84;4957846;28;102130;-66
2022/12/20 03:07:00;;;;;;;;;;;;;;;11.60;43.96;101089.09;4930521;28;100956;-70
2022/12/20 03:09:26;;;;;;;;;;;;;;;11.59;44.19;101085.56;4958710;28;98201;-69
2022/12/20 03:11:53;;;;;;;;;;;;;;;11.60;44.02;101086.41;4943262;28;98704;-66
2022/12/20 03:14:19;;;;;;;;;;;;;;;11.60;44.10;101070.19;4960285;28;99489;-66
2022/12/20 03:16:44;;;;;;;;;;;;;;;11.61;44.22;101063.72;4944349;28;128205;-66
2022/12/20 03:19:11;;;;;;;;;;;;;;;11.60;44.13;101060.19;4947372;28;114578;-66
2022/12/20 03:21:36;;;;;;;;;;;;;;;11.61;44.13;101064.53;4962817;28;97943;-66
2022/12/20 03:24:03;;;;;;;;;;;;;;;11.62;44.13;101055.34;4973786;28;122601;-66
2022/12/20 03:26:28;;;;;;;;;;;;;;;11.63;44.07;101061.53;4941088;28;109369;-66
2022/12/20 03:28:54;;;;;;;;;;;;;;;11.62;44.21;101052.63;4975297;28;128875;-69
2022/12/20 03:31:20;;;;;;;;;;;;;;;11.62;44.14;101059.94;4957224;28;130420;-66
2022/12/20 03:33:46;;;;;;;;;;;;;;;11.63;44.11;101053.44;4956534;28;98721;-69
2022/12/20 03:36:12;;;;;;;;;;;;;;;11.62;43.93;101049.13;4960888;28;128531;-69
2022/12/20 03:38:38;;;;;;;;;;;;;;;11.61;44.13;101044.81;4941884;28;129749;-69
2022/12/20 03:41:04;;;;;;;;;;;;;;;11.62;44.10;101054.53;4959704;28;125615;-69
2022/12/20 03:43:30;;;;;;;;;;;;;;;11.62;44.25;101051.81;4945395;28;98071;-66
2022/12/20 03:45:56;;;;;;;;;;;;;;;11.62;43.99;101051.81;4942154;28;128153;-70
2022/12/20 03:48:22;;;;;;;;;;;;;;;11.61;44.04;101053.72;4971542;28;97801;-70
2022/12/20 03:50:48;;;;;;;;;;;;;;;11.61;44.11;101061.81;4958068;28;127658;-66
2022/12/20 03:53:14;;;;;;;;;;;;;;;11.61;44.04;101058.31;4975094;28;121824;-70
2022/12/20 03:55:40;;;;;;;;;;;;;;;11.62;44.23;101065.31;4976824;28;98466;-69
2022/12/20 03:58:06;;;;;;;;;;;;;;;11.63;44.14;101072.34;4959196;28;128527;-70
2022/12/20 04:00:32;;;;;;;;;;;;;;;11.63;44.13;101059.69;4946454;28;99602;-70
2022/12/20 04:02:57;;;;;;;;;;;;;;;11.63;44.12;101059.69;4973161;28;123991;-70
2022/12/20 04:05:23;;;;;;;;;;;;;;;11.65;44.12;101065.63;4943373;28;129915;-69
2022/12/20 04:07:49;;;;;;;;;;;;;;;11.65;44.13;101060.22;4961638;28;128466;-67
2022/12/20 04:10:15;;;;;;;;;;;;;;;11.66;43.98;101061.84;4958278;27;106349;-66
2022/12/20 04:12:41;;;;;;;;;;;;;;;11.69;44.09;101052.41;4945931;28;98005;-69
2022/12/20 04:15:07;;;;;;;;;;;;;;;11.70;43.98;101057.56;4943952;28;102332;-66
2022/12/20 04:17:33;;;;;;;;;;;;;;;11.70;44.21;101054.84;4973586;28;122711;-66
2022/12/20 04:20:17;;;;;;;;;;;;;;;11.71;44.10;101052.97;4961544;28;127634;-66
2022/12/20 04:22:44;;;;;;;;;;;;;;;11.72;44.11;101058.13;4961342;28;99272;-69
2022/12/20 04:25:10;;;;;;;;;;;;;;;11.75;44.21;101064.88;4951369;28;98225;-66
2022/12/20 04:27:36;;;;;;;;;;;;;;;11.75;44.26;101054.06;4954448;28;128483;-66
2022/12/20 04:30:02;;;;;;;;;;;;;;;11.76;44.13;101061.94;4956313;28;128906;-66
2022/12/20 04:32:28;;;;;;;;;;;;;;;11.77;44.11;101049.22;4943845;28;116598;-67
2022/12/20 04:34:54;;;;;;;;;;;;;;;11.78;43.90;101046.25;4968903;28;129137;-69
2022/12/20 04:37:20;;;;;;;;;;;;;;;11.80;44.08;101048.72;4956339;28;128525;-67
2022/12/20 04:39:46;;;;;;;;;;;;;;;11.80;44.09;101049.53;4942314;28;128121;-70
2022/12/20 04:42:11;;;;;;;;;;;;;;;11.82;44.42;101045.75;4941040;28;122037;-70
2022/12/20 04:44:37;;;;;;;;;;;;;;;11.82;44.19;101046.56;4957979;28;125974;-67
2022/12/20 04:47:03;;;;;;;;;;;;;;;11.84;44.15;101046.34;4960900;28;127506;-70
2022/12/20 04:49:29;;;;;;;;;;;;;;;11.84;44.13;101047.16;4961146;28;127398;-70
2022/12/20 04:53:46;;;;;;;;;;;;;;;11.85;44.04;101046.06;4960436;28;122633;-70
2022/12/20 04:54:41;;;;;;;;;;;;;;;11.86;44.26;101036.06;4949039;28;99012;-66
2022/12/20 04:57:08;;;;;;;;;;;;;;;11.87;44.09;101041.22;4974652;28;97987;-67
2022/12/20 04:59:34;;;;;;;;;;;;;;;11.87;44.12;101043.94;4944882;28;99369;-66
2022/12/20 05:02:00;;;;;;;;;;;;;;;11.88;44.06;101045.53;4956428;28;111561;-67
2022/12/20 05:04:26;;;;;;;;;;;;;;;11.89;44.00;101047.16;4929485;27;128410;-70
2022/12/20 05:06:52;;;;;;;;;;;;;;;11.90;44.23;101043.38;4940412;28;114718;-70
2022/12/20 05:09:18;;;;;;;;;;;;;;;11.93;44.20;101044.75;4954430;28;125649;-70
2022/12/20 05:11:44;;;;;;;;;;;;;;;11.94;44.15;101033.69;4953897;28;120375;-66
2022/12/20 05:14:10;;;;;;;;;;;;;;;11.95;44.19;101046.13;4953805;28;127038;-70
2022/12/20 05:16:36;;;;;;;;;;;;;;;11.96;44.23;101036.94;4958548;28;126701;-70
2022/12/20 05:19:03;;;;;;;;;;;;;;;11.99;44.23;101038.31;4962738;28;98112;-66
2022/12/20 05:26:59;;;;;;;;;;;;;;;12.02;44.19;101024.25;4946557;28;99155;-66
2022/12/20 05:29:25;;;;;;;;;;;;;;;12.04;44.16;101028.34;4957671;28;126578;-66
2022/12/20 05:31:51;;;;;;;;;;;;;;;12.05;44.13;101026.44;4960486;28;98171;-66
2022/12/20 05:34:17;;;;;;;;;;;;;;;12.06;44.17;101024.56;4939538;28;97940;-70
2022/12/20 05:36:43;;;;;;;;;;;;;;;12.07;44.23;101029.72;4954733;28;99336;-66
2022/12/20 05:39:10;;;;;;;;;;;;;;;12.08;44.08;101025.91;4943736;28;128069;-66
2022/12/20 05:41:36;;;;;;;;;;;;;;;12.09;44.07;101029.44;4926277;28;98066;-66
2022/12/20 05:44:02;;;;;;;;;;;;;;;12.10;44.14;101022.94;4940390;28;115141;-70
2022/12/20 05:46:28;;;;;;;;;;;;;;;12.10;44.16;101029.16;4938808;28;124268;-70
2022/12/20 05:48:54;;;;;;;;;;;;;;;12.11;44.05;101030.00;4916076;28;127127;-70
2022/12/20 05:51:20;;;;;;;;;;;;;;;12.12;44.31;101024.31;4930488;28;123738;-70
2022/12/20 05:53:46;;;;;;;;;;;;;;;12.12;44.14;101024.31;4938085;28;127799;-66
2022/12/20 05:56:12;;;;;;;;;;;;;;;12.15;44.06;101028.38;4915210;28;125935;-66
2022/12/20 05:58:39;;;;;;;;;;;;;;;12.14;44.24;101026.75;4920898;28;128396;-67
2022/12/20 06:01:05;;;;;;;;;;;;;;;12.14;44.20;101022.16;4918881;28;98141;-69
2022/12/20 06:03:31;;;;;;;;;;;;;;;12.16;44.26;101025.41;4919356;28;99502;-69
2022/12/20 06:05:57;;;;;;;;;;;;;;;12.16;44.27;101030.00;4920181;28;128929;-69
2022/12/20 06:08:23;;;;;;;;;;;;;;;12.15;44.16;101018.38;4939792;28;128633;-67
2022/12/20 06:10:49;;;;;;;;;;;;;;;12.16;44.25;101025.41;4921848;28;97991;-70
2022/12/20 06:13:15;;;;;;;;;;;;;;;12.17;44.11;101018.91;4929456;28;127755;-69
2022/12/20 06:15:41;;;;;;;;;;;;;;;12.18;44.13;101025.13;4916645;28;122148;-70
2022/12/20 06:18:07;;;;;;;;;;;;;;;12.18;44.13;101017.03;4917437;28;124611;-67
2022/12/20 06:20:34;;;;;;;;;;;;;;;12.18;44.03;101017.88;4935078;28;122348;-66
2022/12/20 06:23:00;;;;;;;;;;;;;;;12.19;44.07;101022.19;4934253;28;99320;-66
2022/12/20 06:25:26;;;;;;;;;;;;;;;12.20;43.98;101018.41;4914651;28;99888;-67
2022/12/20 06:27:52;;;;;;;;;;;;;;;12.20;43.91;101023.00;4935884;28;125541;-67
2022/12/20 06:30:18;;;;;;;;;;;;;;;12.20;44.21;101025.69;4934524;28;98253;-69
2022/12/20 06:32:44;;;;;;;;;;;;;;;12.21;44.28;101022.72;4913142;28;128286;-69
2022/12/20 06:35:10;;;;;;;;;;;;;;;12.22;44.17;101026.22;4916588;28;127496;-69
2022/12/20 06:37:36;;;;;;;;;;;;;;;12.23;44.09;101036.00;4918118;28;128254;-67
2022/12/20 06:40:02;;;;;;;;;;;;;;;12.23;44.23;101036.00;4938563;28;98234;-67
2022/12/20 06:42:28;;;;;;;;;;;;;;;12.25;44.13;101039.22;4965572;28;122835;-69
2022/12/20 06:44:54;;;;;;;;;;;;;;;12.26;44.19;101032.72;4951726;28;125962;-67
2022/12/20 06:47:20;;;;;;;;;;;;;;;12.25;44.18;101023.81;4939734;28;127873;-67
2022/12/20 06:49:46;;;;;;;;;;;;;;;12.26;44.11;101024.63;4923140;28;122412;-69
2022/12/20 06:52:12;;;;;;;;;;;;;;;12.26;44.10;101021.91;4952828;28;126858;-66
2022/12/20 06:54:38;;;;;;;;;;;;;;;12.24;44.20;101024.09;4936469;28;127449;-67
2022/12/20 06:57:05;;;;;;;;;;;;;;;12.22;44.25;101015.41;4952221;28;127772;-69
2022/12/20 06:59:31;;;;;;;;;;;;;;;12.18;44.24;101017.88;4935547;28;98253;-69
2022/12/20 07:01:57;;;;;;;;;;;;;;;12.16;44.25;101006.50;4938383;28;102839;-66
2022/12/20 07:04:23;;;;;;;;;;;;;;;12.12;43.93;101020.81;4937980;28;131266;-66
2022/12/20 07:06:49;;;;;;;;;;;;;;;12.10;44.26;101017.53;4931176;28;127740;-66
2022/12/20 07:09:15;;;;;;;;;;;;;;;12.07;44.17;101020.78;4950479;28;125136;-67
2022/12/20 07:11:42;;;;;;;;;;;;;;;12.04;44.16;101022.13;4949399;28;98480;-69
2022/12/20 07:14:08;;;;;;;;;;;;;;;12.02;44.27;101035.06;4953511;28;98316;-69
2022/12/20 07:16:34;;;;;;;;;;;;;;;11.99;44.37;101031.03;4939257;28;98122;-69
2022/12/20 07:19:00;;;;;;;;;;;;;;;11.99;44.19;101038.31;4933533;28;98055;-68
2022/12/20 07:21:26;;;;;;;;;;;;;;;11.97;44.22;101049.38;4950434;28;98250;-69
2022/12/20 07:23:53;;;;;;;;;;;;;;;11.95;44.24;101032.63;4950190;28;105458;-69
2022/12/20 07:26:19;;;;;;;;;;;;;;;11.96;44.33;101034.25;4937970;28;127729;-69
2022/12/20 07:28:45;;;;;;;;;;;;;;;11.96;44.18;101026.13;4922259;28;98258;-69
2022/12/20 07:31:11;;;;;;;;;;;;;;;11.97;44.44;101024.25;4933143;28;127712;-67
2022/12/20 07:33:37;;;;;;;;;;;;;;;11.96;44.10;101022.63;4952290;28;129622;-69
2022/12/20 07:36:11;;;;;;;;;;;;;;;11.96;44.18;101036.13;4935890;28;98087;-66
2022/12/20 07:38:37;;;;;;;;;;;;;;;11.96;44.24;101036.94;4938338;28;98252;-69
2022/12/20 07:41:07;;;;;;;;;;;;;;;11.95;44.20;101029.13;4953760;28;128867;-66
2022/12/20 07:43:33;;;;;;;;;;;;;;;11.95;44.29;101035.31;4952773;28;98103;-66
2022/12/20 07:45:59;;;;;;;;;;;;;;;11.95;44.17;101040.72;4953735;28;97997;-69
2022/12/20 07:48:25;;;;;;;;;;;;;;;11.94;44.09;101041.78;4954876;28;118269;-69
2022/12/20 07:50:51;;;;;;;;;;;;;;;11.95;44.27;101027.22;4959224;28;127185;-66
2022/12/20 07:53:18;;;;;;;;;;;;;;;11.98;44.06;101028.56;4955062;28;98620;-66
2022/12/20 07:55:44;;;;;;;;;;;;;;;12.00;44.20;101032.63;4941894;28;119555;-69
2022/12/20 07:58:10;;;;;;;;;;;;;;;12.04;44.00;101044.53;4939703;28;98062;-69
2022/12/20 08:00:36;;;;;;;;;;;;;;;12.05;44.16;101039.94;4956430;28;98350;-67
2022/12/20 08:03:10;;;;;;;;;;;;;;;12.05;44.04;101031.84;4939145;28;113707;-66
2022/12/20 08:05:37;;;;;;;;;;;;;;;12.04;44.16;101022.13;4956863;28;106241;-67
2022/12/20 08:08:03;;;;;;;;;;;;;;;12.06;44.04;101013.75;4923159;28;97957;-66
2022/12/20 08:10:29;;;;;;;;;;;;;;;12.07;44.15;101018.09;4940041;28;113743;-69
2022/12/20 08:12:55;;;;;;;;;;;;;;;12.10;44.07;101025.66;4937234;28;107228;-66
2022/12/20 08:15:21;;;;;;;;;;;;;;;12.12;44.08;101035.13;4938466;28;126772;-67
2022/12/20 08:17:48;;;;;;;;;;;;;;;12.14;43.90;101032.16;4944609;28;97850;-69
2022/12/20 08:20:14;;;;;;;;;;;;;;;12.17;44.11;101032.44;4957143;28;98557;-69
2022/12/20 08:22:40;;;;;;;;;;;;;;;12.24;43.89;101041.13;4967390;28;100488;-69
2022/12/20 08:25:06;;;;;;;;;;;;;;;12.31;44.04;101046.28;4971074;27;127529;-69
2022/12/20 08:27:32;;;;;;;;;;;;;;;12.35;43.85;101049.28;4952862;28;97994;-69
2022/12/20 08:29:58;;;;;;;;;;;;;;;12.37;43.91;101052.50;4974187;28;98374;-69
2022/12/20 08:32:24;;;;;;;;;;;;;;;12.36;43.99;101061.72;4972098;28;124416;-67
2022/12/20 08:34:51;;;;;;;;;;;;;;;12.33;44.08;101051.41;4957815;28;122492;-68
2022/12/20 08:37:18;;;;;;;;;;;;;;;12.32;44.05;101047.91;4941177;28;109698;-69
2022/12/20 08:39:43;;;;;;;;;;;;;;;12.33;43.85;101044.13;4942921;28;99561;-69
2022/12/20 08:42:09;;;;;;;;;;;;;;;12.36;43.82;101038.19;4922523;28;99381;-69
2022/12/20 08:44:35;;;;;;;;;;;;;;;12.37;43.89;101036.28;4919589;28;117942;-66
2022/12/20 08:47:01;;;;;;;;;;;;;;;12.43;43.79;101032.53;4951180;28;109278;-67
2022/12/20 08:49:27;;;;;;;;;;;;;;;12.59;43.65;101033.41;4957572;28;128182;-66
2022/12/20 08:51:53;;;;;;;;;;;;;;;12.75;43.63;101032.34;4936530;28;128302;-69
2022/12/20 08:54:19;;;;;;;;;;;;;;;13.05;43.30;101030.75;4955229;28;117931;-69
2022/12/20 08:56:45;;;;;;;;;;;;;;;13.48;43.07;101027.53;4939373;28;122780;-66
2022/12/20 08:59:11;;;;;;;;;;;;;;;14.04;42.44;101029.28;4952297;28;107243;-69
2022/12/20 09:01:37;;;;;;;;;;;;;;;14.52;42.48;101034.25;4943375;28;104197;-69
2022/12/20 09:04:03;;;;;;;;;;;;;;;14.90;42.28;101027.22;4956542;28;98279;-67
2022/12/20 09:06:29;;;;;;;;;;;;;;;15.25;42.28;101030.72;4951437;28;122612;-67
2022/12/20 09:08:55;;;;;;;;;;;;;;;15.56;41.89;101023.94;4940513;28;98951;-67
2022/12/20 09:11:23;;;;;;;;;;;;;;;15.89;42.05;101024.16;4959692;28;99041;-69
2022/12/20 09:13:49;;;;;;;;;;;;;;;16.20;41.90;101030.06;4934777;28;98539;-67
2022/12/20 09:16:17;;;;;;;;;;;;;;;16.47;41.89;101025.91;4935931;28;98335;-67
2022/12/20 09:18:46;;;;;;;;;;;;;;;16.80;41.95;101015.91;4939740;28;98511;-67
2022/12/20 09:21:12;;;;;;;;;;;;;;;16.99;41.83;101013.19;4939581;28;109501;-69
2022/12/20 09:23:38;;;;;;;;;;;;;;;16.89;42.03;101022.31;4938764;28;128106;-69
2022/12/20 09:26:06;;;;;;;;;;;;;;;16.77;42.28;101030.91;4939691;28;98143;-67
2022/12/20 09:28:32;;;;;;;;;;;;;;;16.64;42.59;101026.19;4956882;28;98619;-70
2022/12/20 09:31:02;;;;;;;;;;;;;;;16.51;42.63;101025.03;4938737;28;98317;-67
2022/12/20 09:33:29;;;;;;;;;;;;;;;16.41;42.69;101022.44;4935470;28;99452;-69
2022/12/20 09:35:55;;;;;;;;;;;;;;;16.35;42.89;101020.91;4952597;28;98004;-69
2022/12/20 09:38:21;;;;;;;;;;;;;;;16.25;42.96;101019.09;4956199;28;98612;-67
2022/12/20 09:40:52;;;;;;;;;;;;;;;16.19;43.00;101017.53;4939203;28;104186;-67
2022/12/20 09:43:18;;;;;;;;;;;;;;;16.10;43.11;101030.97;4922458;28;99225;-67
2022/12/20 09:45:45;;;;;;;;;;;;;;;15.97;43.22;101023.53;4940335;28;98272;-69
2022/12/20 09:48:32;;;;;;;;;;;;;;;15.86;43.27;101028.25;4954816;28;98793;-67
2022/12/20 09:51:13;;;;;;;;;;;;;;;15.80;43.34;101026.72;4965858;27;103322;-69
2022/12/20 09:54:07;;;;;;;;;;;;;;;15.74;43.30;101022.41;4972129;28;97883;-69
2022/12/20 09:56:36;;;;;;;;;;;;;;;15.65;43.46;101024.16;4956386;28;99153;-67
2022/12/20 09:59:03;;;;;;;;;;;;;;;15.56;43.46;101029.38;4916912;28;99863;-69
2022/12/20 10:01:31;;;;;;;;;;;;;;;15.48;43.51;101021.81;4955482;28;98393;-67
2022/12/20 10:03:57;;;;;;;;;;;;;;;15.40;43.64;101023.25;4954037;28;97946;-67
2022/12/20 10:06:32;;;;;;;;;;;;;;;15.35;43.37;101028.75;4935386;28;98049;-70
2022/12/20 10:09:03;;;;;;;;;;;;;;;15.32;43.42;101025.78;4948428;28;99557;-69
2022/12/20 10:11:54;;;;;;;;;;;;;;;15.41;43.21;101022.19;4917578;28;98615;-66
2022/12/20 10:14:25;;;;;;;;;;;;;;;15.51;43.17;101015.81;4966775;28;98159;-69
2022/12/20 10:17:12;;;;;;;;;;;;;;;15.59;43.10;101017.91;4966904;28;99033;-68
2022/12/20 10:20:15;;;;;;;;;;;;;;;15.62;43.19;101009.19;4966861;28;98087;-66
2022/12/20 10:22:45;;;;;;;;;;;;;;;15.60;43.06;101018.72;4968990;28;98156;-69
2022/12/20 10:25:29;;;;;;;;;;;;;;;15.55;43.21;101000.56;4933401;28;98441;-67
2022/12/20 10:27:55;;;;;;;;;;;;;;;15.47;43.41;101012.88;4950365;28;97995;-66
2022/12/20 10:30:23;;;;;;;;;;;;;;;15.41;43.55;101005.06;4934868;28;99698;-69
2022/12/20 10:32:50;;;;;;;;;;;;;;;15.32;43.47;101015.72;4954115;28;104990;-66
2022/12/20 10:35:33;;;;;;;;;;;;;;;15.22;43.68;101010.41;4956166;28;98451;-69
2022/12/20 10:38:00;;;;;;;;;;;;;;;15.14;43.39;101000.16;4941384;28;98213;-69
2022/12/20 10:40:34;;;;;;;;;;;;;;;15.10;43.41;100988.25;4954801;28;99844;-69
2022/12/20 10:43:01;;;;;;;;;;;;;;;15.05;43.67;100980.97;4940074;28;99045;-66
2022/12/20 10:45:37;;;;;;;;;;;;;;;15.03;43.64;100985.84;4952203;28;105821;-69
2022/12/20 10:48:24;;;;;;;;;;;;;;;15.03;43.53;100993.19;4952136;28;98975;-69
2022/12/20 10:51:09;;;;;;;;;;;;;;;14.98;43.55;100975.84;4939549;28;105141;-69
2022/12/20 10:53:36;;;;;;;;;;;;;;;14.98;43.41;100985.91;4970205;28;98383;-69
2022/12/20 10:56:15;;;;;;;;;;;;;;;15.02;43.18;100983.44;4931828;28;98357;-66
2022/12/20 10:58:41;;;;;;;;;;;;;;;15.02;43.32;100972.56;4942476;28;102595;-66
2022/12/20 11:01:14;;;;;;;;;;;;;;;15.02;43.45;100970.66;4950876;28;98303;-69
2022/12/20 11:03:58;;;;;;;;;;;;;;;15.02;43.47;100967.16;4952413;28;98195;-69
2022/12/20 11:06:36;;;;;;;;;;;;;;;15.08;43.36;100957.84;4932078;28;98889;-69
2022/12/20 11:09:24;;;;;;;;;;;;;;;15.01;43.33;100939.16;4969767;28;99323;-66
2022/12/20 11:12:03;;;;;;;;;;;;;;;14.94;43.47;100934.09;4932579;28;98163;-67
2022/12/20 11:14:30;;;;;;;;;;;;;;;14.90;43.55;100935.75;4952587;28;99544;-66
2022/12/20 11:16:56;;;;;;;;;;;;;;;14.89;43.54;100936.81;4951207;28;104759;-69
2022/12/20 11:19:47;;;;;;;;;;;;;;;14.90;43.28;100938.47;4955270;28;97990;-69
2022/12/20 11:22:22;;;;;;;;;;;;;;;14.88;43.54;100932.50;4971547;28;98668;-66
2022/12/20 11:25:16;;;;;;;;;;;;;;;14.87;43.71;100920.03;4942667;28;98154;-69
2022/12/20 11:27:48;;;;;;;;;;;;;;;14.88;43.48;100929.78;4958515;28;99368;-69
2022/12/20 11:30:38;;;;;;;;;;;;;;;14.83;43.27;100920.88;4939306;28;99036;-69
2022/12/20 11:33:26;;;;;;;;;;;;;;;14.80;43.45;100919.53;4953702;28;98115;-68
2022/12/20 11:36:01;;;;;;;;;;;;;;;14.77;43.73;100913.88;4957910;28;100827;-68
2022/12/20 11:38:33;;;;;;;;;;;;;;;14.69;43.39;100904.44;4940356;28;106530;-66
2022/12/20 11:41:41;;;;;;;;;;;;;;;14.61;43.53;100896.91;4974643;28;98373;-69
2022/12/20 11:44:25;;;;;;;;;;;;;;;14.54;43.58;100896.41;4890744;28;98759;-68
2022/12/20 11:46:58;;;;;;;;;;;;;;;14.45;43.56;100886.16;4888735;28;99950;-69
2022/12/20 11:49:32;;;;;;;;;;;;;;;14.35;43.96;100888.94;4909003;28;108485;-68
2022/12/20 11:52:28;;;;;;;;;;;;;;;14.28;43.98;100891.16;4945218;28;98419;-66
2022/12/20 11:55:25;;;;;;;;;;;;;;;14.26;43.78;100887.91;4928393;28;98270;-66
2022/12/20 11:58:05;;;;;;;;;;;;;;;14.30;43.78;100886.25;4968430;28;99109;-68
2022/12/20 12:00:34;;;;;;;;;;;;;;;14.25;43.79;100881.69;4955069;28;99457;-69
2022/12/20 12:03:11;;;;;;;;;;;;;;;14.26;43.44;100874.34;4942290;28;97941;-66
2022/12/20 12:05:44;;;;;;;;;;;;;;;14.27;43.40;100867.84;4969100;28;98514;-66
2022/12/20 12:08:37;;;;;;;;;;;;;;;14.25;43.65;100878.16;4939505;28;98593;-66
2022/12/20 12:11:23;;;;;;;;;;;;;;;14.19;43.78;100874.69;4956503;28;98680;-69
2022/12/20 12:13:49;;;;;;;;;;;;;;;14.11;43.67;100878.00;4955639;28;98171;-68
2022/12/20 12:16:22;;;;;;;;;;;;;;;14.04;43.64;100873.97;4941617;28;127687;-66
2022/12/20 12:18:48;;;;;;;;;;;;;;;13.97;43.82;100869.66;4951959;28;98299;-66
2022/12/20 12:21:22;;;;;;;;;;;;;;;13.90;43.82;100866.44;4939607;28;98291;-68
2022/12/20 12:24:09;;;;;;;;;;;;;;;13.84;43.72;100875.72;4937984;28;98362;-69
2022/12/20 12:26:36;;;;;;;;;;;;;;;13.78;43.78;100868.69;4939945;28;97984;-69
2022/12/20 12:29:08;;;;;;;;;;;;;;;13.73;43.69;100868.72;4953775;28;98407;-67
2022/12/20 12:31:43;;;;;;;;;;;;;;;13.68;43.88;100857.91;4957954;28;98223;-66
2022/12/20 12:34:20;;;;;;;;;;;;;;;13.64;43.96;100854.16;4924881;28;98212;-68
2022/12/20 12:37:08;;;;;;;;;;;;;;;13.59;44.22;100859.56;4968368;28;98652;-68
2022/12/20 12:39:59;;;;;;;;;;;;;;;13.51;44.27;100855.53;4970231;28;99656;-65
2022/12/20 12:43:02;;;;;;;;;;;;;;;13.48;43.84;100847.97;4949296;28;119264;-67
2022/12/20 12:45:48;;;;;;;;;;;;;;;13.47;44.20;100849.06;4907278;28;98522;-65
2022/12/20 12:48:34;;;;;;;;;;;;;;;13.45;43.95;100835.81;4955348;28;98617;-68
2022/12/20 12:51:01;;;;;;;;;;;;;;;13.41;44.17;100842.84;4970851;28;98582;-69
2022/12/20 12:53:45;;;;;;;;;;;;;;;13.36;44.07;100845.59;4950396;28;98200;-68